Lincoln, NE (68504)

4:05 PM CST on February 09, 2016 (GMT -0600)
Wulf weather | | Change Station
CLOSE
Current Station
Personal Weather Station
Location: Lincoln, NE
Elevation: 1243 ft
Nearby Weather Stations

Elev 1243 ft 40.85 °N, 96.63 °W | Updated 7 seconds ago

Partly Cloudy
Partly Cloudy
31.1 °F
Feels Like 27 °F
N
4.5
Wind Variable Wind from North
Gusts 12.1 mph

Today
High -- | Low -- °F
--% Chance of Precip.
Yesterday
High -- | Low -- °F
Precip. -- in
Pressure 30.32 in
Visibility 10.0 miles
Clouds Clear
Windchill 27 °F
Dew Point 4 °F
Humidity 31%
Rainfall 0.00 in
Snow Depth Not available.
7:28 AM 5:53 PM
New Moon, 2% visible
METAR KLNK 092154Z 31011KT 10SM CLR M02/M11 A3027 RMK AO2 SLP267 T10221111
Pressure 30.32 in
Visibility 10.0 miles
Clouds Clear
Windchill 27 °F
Dew Point 4 °F
Humidity 31%
Rainfall 0.00 in
Snow Depth Not available.
7:28 AM 5:53 PM
New Moon, 2% visible
METAR KLNK 092154Z 31011KT 10SM CLR M02/M11 A3027 RMK AO2 SLP267 T10221111

10-Day Weather Forecast

Almanac

Astronomy

Feb. 09, 2016 Rise Set
Actual Time
Civil Twilight
Nautical Twilight
Astronomical Twilight
Moon
Length of Visible Light
Length of Day
Tomorrow will be .
, % of the Moon is Illuminated

Today's Extremes

State Highs State Lows

Community

WunderPhotos

Upload Photos

1,891,719 photos uploaded!

WunderBlog® & News

Nearby

Air Quality

  Air Quality AQ Index Pollutant
Not available.

Snow Depth

Station Depth Elevation

Earthquake Activity

City Distance Mag. Time & Date
Minimum magnitude displayed is 2.5.

Coastal Water Temperatures

Place Temperature

Stations

Nearby Weather Stations

Station Location Temp. Windchill Dew Point Humidity Wind Precip. Elev Updated Type
                   

Watches & Warnings

There are currently no watches in effect.